Weather History for Kankakee, IL

Change the Weather History Date:

Sunday, January 6, 2013

  Actual Average Record
Temperature  
Mean Temperature 24 °F -  
Max Temperature 33 °F 32 °F 64 °F (2008)
Min Temperature 14 °F 16 °F -14 °F (2014)
Degree Days  
Heating Degree Days 42    
Moisture  
Dew Point 22 °F    
Average Humidity 84    
Maximum Humidity 95    
Minimum Humidity 71    
Precipitation  
Precipitation 0.00 in - - ()
Sea Level Pressure  
Sea Level Pressure 30.14 in    
Wind  
Wind Speed 14 mph (West)    
Max Wind Speed 22 mph    
Max Gust Speed 29 mph    
Visibility 10 miles    
Events      
Averages and records for this station are not official NWS values.
T = Trace of Precipitation, MM = Missing Value Source: NWS Daily Summary

Daily Weather History Graph

Daily Weather History Graph

Search for Another Location

Airport:

Trip Planner

Search our weather history database for the weather conditions in past years. The results will help you decide how hot, cold, wet, or windy it might be!

Date:

Astronomy

Jan. 06, 2013 Rise Set
Actual Time 7:16 AM CST 4:38 PM CST
Civil Twilight 6:45 AM CST 5:09 PM CST
Nautical Twilight 6:11 AM CST 5:43 PM CST
Astronomical Twilight 5:38 AM CST 6:16 PM CST
Moon 1:29 AM CST (1/6) 12:06 PM CST (1/6)
Length of Visible Light 10h 23m
Length of Day
9h 21m
Waning Crescent, 33% of the Moon is Illuminated
Jan 6
Waning Crescent
Jan 11
New
Jan 18
First Quarter
Jan 26
Full
Feb 3
Last Quarter

Hourly Weather History & Observations

Time (CST) Temp. Windchill Dew Point Humidity Pressure Visibility Wind Dir Wind Speed Gust Speed Precip Events Conditions
12:15 AM 33.8 °F 23.2 °F 30.9 °F 89% 29.99 in 10.0 mi SSW 17.3 mph - N/A   Overcast
12:35 AM 33.8 °F 23.2 °F 30.9 °F 89% 29.97 in 10.0 mi SSW 17.3 mph 21.9 mph N/A   Overcast
12:55 AM 33.8 °F 23.5 °F 30.9 °F 89% 29.97 in 10.0 mi SSW 16.1 mph 23.0 mph N/A   Overcast
1:15 AM 33.8 °F 23.9 °F 31.1 °F 90% 29.97 in 10.0 mi SSW 15.0 mph - N/A   Overcast
1:35 AM 33.8 °F 23.9 °F 31.1 °F 90% 29.97 in 10.0 mi SSW 15.0 mph - N/A   Overcast
1:55 AM 33.4 °F 23.1 °F 31.1 °F 91% 29.97 in 10.0 mi SSW 16.1 mph - N/A   Overcast
2:15 AM 33.4 °F 23.1 °F 31.1 °F 91% 29.97 in 10.0 mi SSW 16.1 mph - N/A   Overcast
2:35 AM 33.1 °F 23.4 °F 31.1 °F 92% 29.97 in 10.0 mi SSW 13.8 mph - N/A   Overcast
2:55 AM 32.9 °F 23.7 °F 31.5 °F 94% 29.97 in 10.0 mi SW 12.7 mph - N/A   Overcast
3:15 AM 33.1 °F 23.9 °F 31.1 °F 92% 29.97 in 10.0 mi SW 12.7 mph - N/A   Overcast
3:35 AM 33.3 °F 24.6 °F 31.5 °F 93% 29.96 in 10.0 mi SW 11.5 mph - N/A   Overcast
3:55 AM 33.3 °F 25.7 °F 31.5 °F 93% 29.96 in 10.0 mi SW 9.2 mph - N/A   Overcast
4:15 AM 33.4 °F 25.9 °F 31.8 °F 94% 29.96 in 10.0 mi SW 9.2 mph - N/A   Overcast
4:35 AM 33.8 °F 24.3 °F 31.8 °F 92% 29.96 in 10.0 mi WSW 13.8 mph - N/A   Overcast
4:55 AM 33.1 °F 22.6 °F 30.7 °F 91% 29.96 in 10.0 mi West 16.1 mph 23.0 mph N/A   Overcast
5:15 AM 31.5 °F 19.1 °F 26.1 °F 80% 29.97 in 10.0 mi West 20.7 mph 26.5 mph N/A   Overcast
5:35 AM 29.8 °F 17.0 °F 24.8 °F 81% 29.98 in 10.0 mi West 20.7 mph 28.8 mph N/A   Overcast
5:55 AM 28.2 °F 14.5 °F 24.1 °F 84% 30.00 in 10.0 mi West 21.9 mph 25.3 mph N/A   Overcast
6:15 AM 27.0 °F 12.8 °F 22.8 °F 84% 30.01 in 10.0 mi West 21.9 mph 27.6 mph N/A   Overcast
6:35 AM 26.6 °F 13.4 °F 22.5 °F 84% 30.02 in 10.0 mi West 18.4 mph 25.3 mph N/A   Overcast
6:55 AM 26.6 °F 14.3 °F 21.7 °F 82% 30.02 in 10.0 mi West 16.1 mph 21.9 mph N/A   Overcast
7:15 AM 26.1 °F 13.6 °F 21.4 °F 82% 30.03 in 10.0 mi West 16.1 mph - N/A   Overcast
7:35 AM 24.6 °F 10.1 °F 19.6 °F 81% 30.03 in 10.0 mi West 20.7 mph 24.2 mph N/A   Overcast
7:55 AM 23.7 °F 9.3 °F 19.0 °F 82% 30.04 in 10.0 mi West 19.6 mph 25.3 mph N/A   Overcast
8:15 AM 23.0 °F 8.7 °F 19.4 °F 86% 30.05 in 10.0 mi West 18.4 mph 21.9 mph N/A   Overcast
8:35 AM 23.0 °F 9.6 °F 18.5 °F 83% 30.07 in 10.0 mi West 16.1 mph 24.2 mph N/A   Overcast
8:55 AM 22.6 °F 8.3 °F 18.1 °F 83% 30.07 in 10.0 mi West 18.4 mph - N/A   Overcast
9:15 AM 22.8 °F 10.4 °F 18.0 °F 82% 30.09 in 10.0 mi West 13.8 mph 17.3 mph N/A   Overcast
9:35 AM 23.0 °F 11.1 °F 18.5 °F 83% 30.10 in 10.0 mi WNW 12.7 mph - N/A   Overcast
9:55 AM 23.0 °F 10.1 °F 17.4 °F 79% 30.11 in 10.0 mi West 15.0 mph 19.6 mph N/A   Overcast
10:15 AM 23.5 °F 10.3 °F 18.0 °F 79% 30.11 in 10.0 mi WNW 16.1 mph 23.0 mph N/A   Mostly Cloudy
10:35 AM 24.1 °F 11.5 °F 18.1 °F 78% 30.12 in 10.0 mi WNW 15.0 mph 25.3 mph N/A   Scattered Clouds
10:55 AM 24.3 °F 11.7 °F 18.0 °F 77% 30.12 in 10.0 mi WNW 15.0 mph - N/A   Scattered Clouds
11:15 AM 26.1 °F 13.1 °F 19.9 °F 78% 30.11 in 10.0 mi WNW 17.3 mph 23.0 mph N/A   Mostly Cloudy
11:35 AM 25.3 °F 14.1 °F 19.0 °F 77% 30.12 in 10.0 mi WNW 12.7 mph 23.0 mph N/A   Overcast
11:55 AM 26.4 °F 14.0 °F 20.5 °F 78% 30.12 in 10.0 mi West 16.1 mph 20.7 mph N/A   Overcast
12:15 PM 26.6 °F 16.8 °F 20.5 °F 78% 30.12 in 10.0 mi WNW 10.4 mph 19.6 mph N/A   Overcast
12:35 PM 27.5 °F 16.8 °F 21.0 °F 77% 30.12 in 10.0 mi WNW 12.7 mph 19.6 mph N/A   Overcast
12:55 PM 28.2 °F 15.9 °F 22.3 °F 78% 30.12 in 10.0 mi West 17.3 mph 23.0 mph N/A   Overcast
1:15 PM 29.1 °F 17.1 °F 22.8 °F 77% 30.13 in 10.0 mi WNW 17.3 mph 21.9 mph N/A   Mostly Cloudy
1:35 PM 29.5 °F 18.0 °F 22.8 °F 76% 30.14 in 10.0 mi WNW 16.1 mph - N/A   Scattered Clouds
1:55 PM 30.2 °F 18.5 °F 23.2 °F 75% 30.15 in 10.0 mi West 17.3 mph 24.2 mph N/A   Scattered Clouds
2:15 PM 30.6 °F 19.8 °F 23.5 °F 75% 30.16 in 10.0 mi West 15.0 mph 18.4 mph N/A   Scattered Clouds
2:35 PM 30.9 °F 20.7 °F 23.4 °F 74% 30.17 in 10.0 mi West 13.8 mph - N/A   Clear
2:55 PM 30.9 °F 20.7 °F 22.8 °F 72% 30.17 in 10.0 mi WNW 13.8 mph 19.6 mph N/A   Clear
3:15 PM 30.7 °F 20.4 °F 23.4 °F 74% 30.20 in 10.0 mi WNW 13.8 mph 18.4 mph N/A   Clear
3:35 PM 31.1 °F 21.4 °F 23.0 °F 72% 30.21 in 10.0 mi WNW 12.7 mph 19.6 mph N/A   Clear
3:55 PM 31.1 °F 22.4 °F 22.8 °F 71% 30.22 in 10.0 mi WNW 10.4 mph 18.4 mph N/A   Scattered Clouds
4:15 PM 30.2 °F 21.9 °F 23.0 °F 75% 30.22 in 10.0 mi WNW 9.2 mph - N/A   Scattered Clouds
4:35 PM 30.0 °F 25.2 °F 22.1 °F 72% 30.23 in 10.0 mi WNW 4.6 mph - N/A   Clear
4:55 PM 28.9 °F 21.1 °F 22.1 °F 76% 30.26 in 10.0 mi WNW 8.1 mph - N/A   Clear
5:15 PM 26.8 °F 20.2 °F 21.2 °F 79% 30.26 in 10.0 mi West 5.8 mph - N/A   Clear
5:35 PM 25.7 °F 17.1 °F 21.0 °F 82% 30.27 in 10.0 mi West 8.1 mph - N/A   Clear
5:55 PM 24.8 °F 16.1 °F 21.2 °F 86% 30.29 in 10.0 mi West 8.1 mph - N/A   Clear
6:15 PM 24.8 °F 16.9 °F 20.7 °F 84% 30.30 in 10.0 mi West 6.9 mph - N/A   Clear
6:35 PM 24.1 °F 16.0 °F 20.3 °F 85% 30.31 in 10.0 mi West 6.9 mph - N/A   Clear
6:55 PM 23.5 °F 15.4 °F 20.1 °F 87% 30.32 in 10.0 mi West 6.9 mph - N/A   Clear
7:15 PM 23.0 °F 14.7 °F 19.9 °F 88% 30.32 in 10.0 mi West 6.9 mph - N/A   Clear
7:35 PM 22.3 °F 14.9 °F 19.4 °F 89% 30.32 in 10.0 mi West 5.8 mph - N/A   Clear
7:55 PM 21.7 °F 14.3 °F 19.0 °F 89% 30.33 in 10.0 mi West 5.8 mph - N/A   Clear
8:15 PM 21.2 °F 13.6 °F 18.9 °F 91% 30.34 in 10.0 mi West 5.8 mph - N/A   Clear
8:35 PM 20.3 °F 13.8 °F 18.3 °F 92% 30.34 in 10.0 mi West 4.6 mph - N/A   Clear
8:55 PM 21.2 °F 16.4 °F 19.4 °F 93% 30.35 in 7.0 mi West 3.5 mph - N/A   Clear
9:15 PM 18.5 °F 13.3 °F 17.2 °F 95% 30.34 in 7.0 mi WSW 3.5 mph - N/A   Clear
9:35 PM 19.4 °F - 17.6 °F 93% 30.34 in 7.0 mi Calm Calm - N/A   Clear
9:55 PM 18.1 °F 12.9 °F 16.7 °F 94% 30.34 in 7.0 mi WSW 3.5 mph - N/A   Clear
10:15 PM 15.8 °F 8.6 °F 14.7 °F 95% 30.35 in 7.0 mi WSW 4.6 mph - N/A   Clear
10:35 PM 15.1 °F 7.7 °F 13.3 °F 93% 30.36 in 7.0 mi SW 4.6 mph - N/A   Clear
10:55 PM 14.9 °F 9.2 °F 13.3 °F 93% 30.35 in 7.0 mi SW 3.5 mph - N/A   Clear
11:15 PM 15.8 °F 7.2 °F 14.0 °F 93% 30.36 in 7.0 mi SW 5.8 mph - N/A   Clear
11:35 PM 14.5 °F 4.6 °F 12.7 °F 93% 30.36 in 7.0 mi SSW 6.9 mph - N/A   Clear
11:55 PM 15.3 °F - 13.6 °F 93% 30.34 in 7.0 mi Calm Calm - N/A   Clear